createdAt,value
2017-08-10T00:02:32.564Z,2.90
2017-08-10T00:05:33.902Z,3.27
2017-08-10T00:08:35.316Z,3.30
2017-08-10T00:11:36.754Z,3.20
2017-08-10T00:14:38.859Z,2.97
2017-08-10T00:17:40.667Z,2.70
2017-08-10T00:20:41.982Z,2.83
2017-08-10T00:23:43.423Z,2.83
2017-08-10T00:26:44.837Z,2.67
2017-08-10T00:29:46.944Z,3.03
2017-08-10T00:32:48.321Z,2.73
2017-08-10T00:35:49.725Z,2.90
2017-08-10T00:38:51.097Z,2.83
2017-08-10T00:41:52.496Z,2.40
2017-08-10T00:44:55.043Z,2.70
2017-08-10T00:48:03.290Z,2.87
2017-08-10T00:51:04.667Z,2.63
2017-08-10T00:54:05.994Z,2.90
2017-08-10T00:57:07.372Z,3.00
2017-08-10T01:00:09.490Z,2.90
2017-08-10T01:03:10.927Z,2.63
2017-08-10T01:06:12.610Z,2.57
2017-08-10T01:09:14.134Z,2.90
2017-08-10T01:12:15.634Z,2.80
2017-08-10T01:15:17.020Z,3.10
2017-08-10T01:18:18.474Z,2.77
2017-08-10T01:21:19.802Z,2.87
2017-08-10T01:24:21.966Z,2.70
2017-08-10T01:27:24.062Z,2.50
2017-08-10T01:30:25.569Z,3.20
2017-08-10T01:33:26.957Z,2.50
2017-08-10T01:36:28.379Z,2.90
2017-08-10T01:39:30.321Z,2.73
2017-08-10T01:42:31.825Z,2.50
2017-08-10T01:45:33.987Z,2.67
2017-08-10T01:48:36.128Z,3.00
2017-08-10T01:51:37.554Z,2.77
2017-08-10T01:54:38.963Z,2.97
2017-08-10T01:57:40.427Z,2.80
2017-08-10T02:00:41.800Z,2.60
2017-08-10T02:03:43.210Z,2.83
2017-08-10T02:06:45.551Z,2.33
2017-08-10T02:09:47.038Z,2.73
2017-08-10T02:12:49.182Z,2.40
2017-08-10T02:15:50.578Z,2.97
2017-08-10T02:18:51.943Z,3.03
2017-08-10T02:21:53.395Z,3.27
2017-08-10T02:24:54.798Z,3.00
2017-08-10T02:27:56.368Z,2.60
2017-08-10T02:30:58.502Z,3.07
2017-08-10T02:33:59.923Z,3.40
2017-08-10T02:37:01.270Z,3.23
2017-08-10T02:40:02.728Z,3.37
2017-08-10T02:43:04.083Z,2.63
2017-08-10T02:46:05.429Z,2.77
2017-08-10T02:49:06.807Z,2.30
2017-08-10T02:52:08.298Z,3.00
2017-08-10T02:55:10.611Z,3.10
2017-08-10T02:58:11.980Z,2.77
2017-08-10T03:01:13.671Z,3.00
2017-08-10T03:04:15.771Z,3.23
2017-08-10T03:07:17.123Z,2.97
2017-08-10T03:10:18.544Z,3.50
2017-08-10T03:13:19.923Z,4.63
2017-08-10T03:16:21.295Z,4.33
2017-08-10T03:19:22.708Z,4.67
2017-08-10T03:22:25.027Z,4.50
2017-08-10T03:25:26.366Z,4.90
2017-08-10T03:28:28.151Z,4.97
2017-08-10T03:31:29.501Z,5.03
2017-08-10T03:34:30.926Z,5.63
2017-08-10T03:37:32.280Z,4.80
2017-08-10T03:40:33.734Z,5.70
2017-08-10T03:43:35.117Z,4.93
2017-08-10T03:46:36.608Z,4.80
2017-08-10T03:49:37.948Z,5.20
2017-08-10T03:52:40.079Z,5.17
2017-08-10T03:55:41.414Z,5.33
2017-08-10T03:58:42.867Z,4.63
2017-08-10T04:01:44.323Z,5.03
2017-08-10T04:04:45.692Z,4.80
2017-08-10T04:07:47.083Z,5.20
2017-08-10T04:10:48.545Z,4.30
2017-08-10T04:13:49.954Z,5.30
2017-08-10T04:16:52.055Z,5.60
2017-08-10T04:19:53.675Z,4.90
2017-08-10T04:22:55.038Z,5.50
2017-08-10T04:25:57.208Z,5.00
2017-08-10T04:28:59.369Z,5.20
2017-08-10T04:32:00.767Z,4.80
2017-08-10T04:35:02.187Z,5.20
2017-08-10T04:38:04.370Z,5.37
2017-08-10T04:41:05.770Z,5.47
2017-08-10T04:44:07.148Z,4.90
2017-08-10T04:47:09.359Z,5.20
2017-08-10T04:50:10.752Z,4.73
2017-08-10T04:53:12.153Z,5.53
2017-08-10T04:56:13.538Z,5.80
2017-08-10T04:59:14.938Z,5.67
2017-08-10T05:02:17.047Z,5.70
2017-08-10T05:05:18.492Z,5.83
2017-08-10T05:08:19.888Z,5.40
2017-08-10T05:11:21.277Z,5.77
2017-08-10T05:14:22.956Z,5.70
2017-08-10T05:17:24.238Z,5.50
2017-08-10T05:20:25.610Z,6.13
2017-08-10T05:23:27.719Z,6.70
2017-08-10T05:26:29.078Z,6.60
2017-08-10T05:29:30.405Z,7.33
2017-08-10T05:32:31.771Z,6.80
2017-08-10T05:35:33.111Z,5.93
2017-08-10T05:38:34.474Z,6.97
2017-08-10T05:41:35.800Z,6.90
2017-08-10T05:44:37.120Z,6.50
2017-08-10T05:47:39.209Z,7.67
2017-08-10T05:50:40.576Z,8.00
2017-08-10T05:53:41.943Z,7.57
2017-08-10T05:56:43.294Z,8.00
2017-08-10T05:59:44.678Z,7.43
2017-08-10T06:02:46.047Z,8.93
2017-08-10T06:05:47.443Z,8.43
2017-08-10T06:08:48.820Z,8.20
2017-08-10T06:11:50.916Z,7.77
2017-08-10T06:14:52.250Z,7.67
2017-08-10T06:17:53.583Z,9.20
2017-08-10T06:20:55.677Z,10.90
2017-08-10T06:23:57.006Z,10.30
2017-08-10T06:26:59.104Z,9.10
2017-08-10T06:30:00.444Z,9.50
2017-08-10T06:33:01.814Z,12.03
2017-08-10T06:36:03.275Z,10.23
2017-08-10T06:39:04.635Z,11.03
2017-08-10T06:42:05.970Z,10.90
2017-08-10T06:45:07.536Z,13.00
2017-08-10T06:48:08.903Z,13.33
2017-08-10T06:51:10.223Z,11.90
2017-08-10T06:54:11.564Z,13.03
2017-08-10T06:57:12.915Z,11.80
2017-08-10T07:00:14.307Z,14.13
2017-08-10T07:03:15.675Z,13.53
2017-08-10T07:06:17.746Z,12.40
2017-08-10T07:09:19.833Z,15.33
2017-08-10T07:12:21.186Z,12.63
2017-08-10T07:15:22.564Z,12.50
2017-08-10T07:18:23.894Z,13.60
2017-08-10T07:21:25.257Z,12.87
2017-08-10T07:24:26.580Z,13.10
2017-08-10T07:27:27.967Z,8.10
2017-08-10T07:30:29.432Z,9.73
2017-08-10T07:33:30.766Z,13.77
2017-08-10T07:36:32.154Z,14.20
2017-08-10T07:39:33.590Z,11.87
2017-08-10T07:42:34.960Z,12.30
2017-08-10T07:45:37.037Z,16.20
2017-08-10T07:48:39.128Z,15.57
2017-08-10T07:51:40.480Z,15.43
2017-08-10T07:54:41.867Z,14.57
2017-08-10T07:57:43.241Z,14.90
2017-08-10T08:00:44.560Z,15.57
2017-08-10T08:03:45.956Z,14.50
2017-08-10T08:06:48.051Z,15.33
2017-08-10T08:09:49.409Z,14.50
2017-08-10T08:12:50.912Z,16.07
2017-08-10T08:15:52.248Z,33.53
2017-08-10T08:18:53.586Z,59.30
2017-08-10T08:21:54.950Z,19.00
2017-08-10T08:24:56.272Z,12.13
2017-08-10T08:27:57.615Z,12.90
2017-08-10T08:30:58.956Z,14.30
2017-08-10T08:34:00.333Z,15.00
2017-08-10T08:37:01.670Z,13.77
2017-08-10T08:40:03.010Z,13.67
2017-08-10T08:43:04.335Z,15.80
2017-08-10T08:46:06.481Z,13.53
2017-08-10T08:49:07.824Z,13.60
2017-08-10T08:52:09.298Z,14.90
2017-08-10T08:55:11.344Z,13.70
2017-08-10T08:58:12.727Z,14.20
2017-08-10T09:01:14.796Z,14.40
2017-08-10T09:04:16.200Z,15.50
2017-08-10T09:07:17.508Z,16.93
2017-08-10T09:10:18.851Z,15.37
2017-08-10T09:13:20.188Z,103.60
2017-08-10T09:16:22.347Z,40.30
2017-08-10T09:19:23.813Z,12.60
2017-08-10T09:22:25.860Z,11.67
2017-08-10T09:25:27.202Z,12.40
2017-08-10T09:28:28.543Z,20.97
2017-08-10T09:31:29.913Z,13.30
2017-08-10T09:34:31.271Z,12.67
2017-08-10T09:37:33.393Z,13.87
2017-08-10T09:40:34.753Z,12.60
2017-08-10T09:43:36.146Z,12.70
2017-08-10T09:46:38.309Z,12.67
2017-08-10T09:49:40.397Z,10.37
2017-08-10T09:52:41.755Z,10.67
2017-08-10T09:55:43.116Z,10.00
2017-08-10T09:58:44.527Z,9.90
2017-08-10T10:01:45.873Z,11.40
2017-08-10T10:04:47.968Z,9.87
2017-08-10T10:07:49.576Z,10.20
2017-08-10T10:10:50.941Z,10.77
2017-08-10T10:13:53.287Z,10.20
2017-08-10T10:16:54.654Z,11.13
2017-08-10T10:19:56.781Z,9.77
2017-08-10T10:22:58.127Z,10.50
2017-08-10T10:25:59.498Z,28.70
2017-08-10T10:29:00.816Z,29.10
2017-08-10T10:32:02.187Z,14.07
2017-08-10T10:35:03.536Z,12.27
2017-08-10T10:38:04.884Z,11.13
2017-08-10T10:41:06.371Z,11.23
2017-08-10T10:44:07.730Z,9.90
2017-08-10T10:47:09.088Z,11.20
2017-08-10T10:50:11.150Z,11.13
2017-08-10T10:53:12.522Z,11.50
2017-08-10T10:56:13.852Z,12.93
2017-08-10T10:59:15.190Z,10.33
2017-08-10T11:02:16.541Z,12.27
2017-08-10T11:05:17.922Z,13.43
2017-08-10T11:08:20.135Z,13.27
2017-08-10T11:11:22.679Z,12.37
2017-08-10T11:14:24.801Z,12.57
2017-08-10T11:17:26.136Z,11.43
2017-08-10T11:20:27.489Z,11.70
2017-08-10T11:23:28.841Z,12.23
2017-08-10T11:26:30.180Z,10.90
2017-08-10T11:29:31.524Z,10.97
2017-08-10T11:32:32.966Z,10.37
2017-08-10T11:35:34.326Z,10.00
2017-08-10T11:38:35.664Z,9.97
2017-08-10T11:41:37.036Z,11.03
2017-08-10T11:44:38.457Z,11.40
2017-08-10T11:47:39.923Z,11.20
2017-08-10T11:50:41.373Z,10.80
2017-08-10T11:53:42.704Z,11.60
2017-08-10T11:56:44.777Z,12.00
2017-08-10T11:59:48.055Z,11.83
2017-08-10T12:02:49.439Z,8.80
2017-08-10T12:05:50.780Z,9.03
2017-08-10T12:08:52.153Z,29.80
2017-08-10T12:11:53.611Z,33.57
2017-08-10T12:14:54.976Z,46.90
2017-08-10T12:17:56.371Z,12.13
2017-08-10T12:20:58.565Z,11.73
2017-08-10T12:23:59.956Z,13.10
2017-08-10T12:27:01.350Z,15.73
2017-08-10T12:30:02.702Z,14.37
2017-08-10T12:33:04.155Z,16.87
2017-08-10T12:36:05.484Z,19.20
2017-08-10T12:39:06.850Z,19.53
2017-08-10T12:42:09.003Z,20.83
2017-08-10T12:45:11.143Z,22.37
2017-08-10T12:48:12.556Z,25.67
2017-08-10T12:51:14.279Z,25.57
2017-08-10T12:54:16.356Z,24.80
2017-08-10T12:57:18.499Z,25.43
2017-08-10T13:00:19.847Z,23.70
2017-08-10T13:03:21.239Z,26.10
2017-08-10T13:06:22.625Z,24.20
2017-08-10T13:09:24.021Z,26.00
2017-08-10T13:12:26.147Z,26.77
2017-08-10T13:15:27.487Z,260.03
2017-08-10T13:18:28.921Z,69.53
2017-08-10T13:21:30.303Z,24.83
2017-08-10T13:24:31.683Z,23.07
2017-08-10T13:27:33.150Z,22.57
2017-08-10T13:30:36.308Z,24.20
2017-08-10T13:33:37.800Z,24.33
2017-08-10T13:36:42.809Z,26.40
2017-08-10T13:39:44.908Z,27.33
2017-08-10T13:42:46.282Z,25.73
2017-08-10T13:45:47.686Z,27.50
2017-08-10T13:48:49.102Z,24.73
2017-08-10T13:51:50.470Z,23.27
2017-08-10T13:54:51.858Z,19.87
2017-08-10T13:57:53.980Z,21.53
2017-08-10T14:00:55.304Z,21.37
2017-08-10T14:03:56.673Z,21.33
2017-08-10T14:06:58.205Z,19.93
2017-08-10T14:09:59.602Z,43.53
2017-08-10T14:13:00.997Z,21.30
2017-08-10T14:16:02.583Z,20.90
2017-08-10T14:19:04.037Z,21.67
2017-08-10T14:22:05.372Z,21.60
2017-08-10T14:25:07.468Z,20.63
2017-08-10T14:28:08.807Z,19.27
2017-08-10T14:31:10.187Z,20.50
2017-08-10T14:34:11.559Z,18.43
2017-08-10T14:37:12.896Z,19.33
2017-08-10T14:40:14.300Z,20.93
2017-08-10T14:43:16.432Z,20.60
2017-08-10T14:46:17.814Z,19.70
2017-08-10T14:49:19.915Z,19.03
2017-08-10T14:52:21.250Z,19.10
2017-08-10T14:55:22.613Z,18.07
2017-08-10T14:58:23.964Z,16.50
2017-08-10T15:01:25.334Z,16.13
2017-08-10T15:04:26.675Z,16.13
2017-08-10T15:07:28.130Z,15.00
2017-08-10T15:10:29.638Z,17.57
2017-08-10T15:13:31.291Z,15.67
2017-08-10T15:16:32.665Z,14.90
2017-08-10T15:19:34.094Z,16.97
2017-08-10T15:22:36.249Z,16.13
2017-08-10T15:25:38.228Z,17.67
2017-08-10T15:28:39.960Z,15.93
2017-08-10T15:31:41.320Z,16.63
2017-08-10T15:34:42.645Z,15.43
2017-08-10T15:37:44.011Z,15.80
2017-08-10T15:40:45.413Z,15.30
2017-08-10T15:43:46.753Z,15.67
2017-08-10T15:46:48.211Z,19.37
2017-08-10T15:49:49.535Z,14.67
2017-08-10T15:52:51.681Z,15.37
2017-08-10T15:55:53.119Z,16.40
2017-08-10T15:58:54.469Z,17.73
2017-08-10T16:01:56.199Z,16.43
2017-08-10T16:04:57.698Z,17.20
2017-08-10T16:07:59.138Z,18.37
2017-08-10T16:11:00.530Z,17.20
2017-08-10T16:14:02.699Z,18.47
2017-08-10T16:17:04.838Z,17.43
2017-08-10T16:20:06.367Z,16.50
2017-08-10T16:23:07.747Z,16.17
2017-08-10T16:26:09.159Z,17.33
2017-08-10T16:29:10.848Z,18.50
2017-08-10T16:32:12.283Z,17.80
2017-08-10T16:35:13.719Z,17.90
2017-08-10T16:38:31.116Z,20.23
2017-08-10T16:41:33.547Z,16.60
2017-08-10T16:44:35.304Z,21.23
2017-08-10T16:47:37.465Z,21.10
2017-08-10T16:50:41.383Z,22.40
2017-08-10T16:53:42.763Z,22.10
2017-08-10T16:56:44.223Z,26.13
2017-08-10T16:59:45.983Z,27.60
2017-08-10T17:02:47.427Z,26.43
2017-08-10T17:05:48.827Z,26.50
2017-08-10T17:08:52.399Z,29.10
2017-08-10T17:11:54.270Z,26.10
2017-08-10T17:14:56.348Z,28.73
2017-08-10T17:17:57.771Z,28.90
2017-08-10T17:21:00.002Z,28.57
2017-08-10T17:24:01.475Z,26.93
2017-08-10T17:27:02.967Z,27.70
2017-08-10T17:30:04.418Z,26.93
2017-08-10T17:33:05.911Z,30.00
2017-08-10T17:36:08.467Z,30.80
2017-08-10T17:39:10.403Z,32.13
2017-08-10T17:42:14.098Z,31.80
2017-08-10T17:45:15.739Z,32.50
2017-08-10T17:48:18.302Z,32.57
2017-08-10T17:51:19.738Z,36.00
2017-08-10T17:54:21.119Z,33.00
2017-08-10T17:57:24.503Z,32.83
2017-08-10T18:00:26.442Z,33.27
2017-08-10T18:03:28.775Z,35.30
2017-08-10T18:06:30.185Z,33.30
2017-08-10T18:09:32.320Z,33.40
2017-08-10T18:12:34.727Z,33.13
2017-08-10T18:15:37.358Z,34.13
2017-08-10T18:18:38.843Z,33.40
2017-08-10T18:21:41.072Z,35.73
2017-08-10T18:24:42.950Z,34.40
2017-08-10T18:27:45.085Z,33.07
2017-08-10T18:30:47.546Z,35.40
2017-08-10T18:33:48.997Z,35.53
2017-08-10T18:36:50.434Z,32.83
2017-08-10T18:39:52.879Z,37.10
2017-08-10T18:42:55.272Z,37.37
2017-08-10T18:45:56.750Z,37.10
2017-08-10T18:48:58.309Z,37.70
2017-08-10T18:51:59.974Z,39.17
2017-08-10T18:55:01.539Z,37.60
2017-08-10T18:58:02.906Z,39.27
2017-08-10T19:01:04.542Z,40.87
2017-08-10T19:04:05.972Z,39.83
2017-08-10T19:07:07.407Z,41.90
2017-08-10T19:10:09.740Z,39.83
2017-08-10T19:13:11.296Z,44.57
2017-08-10T19:16:12.972Z,42.10
2017-08-10T19:19:14.743Z,42.47
2017-08-10T19:22:16.971Z,41.33
2017-08-10T19:25:18.364Z,40.50
2017-08-10T19:28:19.890Z,44.30
2017-08-10T19:31:21.287Z,40.57
2017-08-10T19:34:23.742Z,42.37
2017-08-10T19:37:25.366Z,40.73
2017-08-10T19:40:26.795Z,42.23
2017-08-10T19:43:29.954Z,42.53
2017-08-10T19:46:31.699Z,41.00
2017-08-10T19:49:33.128Z,43.27
2017-08-10T19:52:35.551Z,43.43
2017-08-10T19:55:37.096Z,41.10
2017-08-10T19:58:38.944Z,39.40
2017-08-10T20:01:41.237Z,37.10
2017-08-10T20:04:42.743Z,36.60
2017-08-10T20:07:44.163Z,37.80
2017-08-10T20:10:46.478Z,35.40
2017-08-10T20:13:47.934Z,36.57
2017-08-10T20:16:49.300Z,34.73
2017-08-10T20:19:50.739Z,34.90
2017-08-10T20:22:52.326Z,38.23
2017-08-10T20:25:54.493Z,36.50
2017-08-10T20:28:56.704Z,35.47
2017-08-10T20:31:58.614Z,34.30
2017-08-10T20:35:00.002Z,37.10
2017-08-10T20:38:02.129Z,37.40
2017-08-10T20:41:03.570Z,36.60
2017-08-10T20:44:05.051Z,35.63
2017-08-10T20:47:07.285Z,38.47
2017-08-10T20:50:08.766Z,38.30
2017-08-10T20:53:10.187Z,37.00
2017-08-10T20:56:11.760Z,34.10
2017-08-10T20:59:13.225Z,34.80
2017-08-10T21:02:14.754Z,34.77
2017-08-10T21:05:16.266Z,33.70
2017-08-10T21:08:18.551Z,33.60
2017-08-10T21:11:20.060Z,33.57
2017-08-10T21:14:21.646Z,33.50
2017-08-10T21:17:23.851Z,30.00
2017-08-10T21:20:25.464Z,31.40
2017-08-10T21:23:27.628Z,33.17
2017-08-10T21:26:29.927Z,31.90
2017-08-10T21:29:31.369Z,30.80
2017-08-10T21:32:33.599Z,31.90
2017-08-10T21:35:35.046Z,33.20
2017-08-10T21:38:36.539Z,33.77
2017-08-10T21:41:38.072Z,35.87
2017-08-10T21:44:40.372Z,34.30
2017-08-10T21:47:41.804Z,33.60
2017-08-10T21:50:43.987Z,35.57
2017-08-10T21:53:46.214Z,34.50
2017-08-10T21:56:47.620Z,35.23
2017-08-10T21:59:49.086Z,36.57
2017-08-10T22:02:50.486Z,34.67
2017-08-10T22:05:51.970Z,35.27
2017-08-10T22:08:54.164Z,36.70
2017-08-10T22:11:55.789Z,36.50
2017-08-10T22:14:58.032Z,37.50
2017-08-10T22:17:59.450Z,39.17
2017-08-10T22:21:01.068Z,40.60
2017-08-10T22:24:04.004Z,40.50
2017-08-10T22:27:05.444Z,40.63
2017-08-10T22:30:07.476Z,41.17
2017-08-10T22:33:09.126Z,38.83
2017-08-10T22:36:11.287Z,41.03
2017-08-10T22:39:12.712Z,37.13
2017-08-10T22:42:14.139Z,36.77
2017-08-10T22:45:15.999Z,37.77
2017-08-10T22:48:17.484Z,38.47
2017-08-10T22:51:18.935Z,37.77
2017-08-10T22:54:27.467Z,39.67
2017-08-10T22:57:28.828Z,38.63
2017-08-10T23:00:30.252Z,37.17
2017-08-10T23:03:31.623Z,39.17
2017-08-10T23:06:33.031Z,38.30
2017-08-10T23:09:34.461Z,36.70
2017-08-10T23:12:36.622Z,38.37
2017-08-10T23:15:38.890Z,38.80
2017-08-10T23:18:41.029Z,37.80
2017-08-10T23:21:42.422Z,38.73
2017-08-10T23:24:44.178Z,39.67
2017-08-10T23:27:46.366Z,40.10
2017-08-10T23:30:47.767Z,38.70
2017-08-10T23:33:49.302Z,41.63
2017-08-10T23:36:51.174Z,40.80
2017-08-10T23:39:53.331Z,40.97
2017-08-10T23:42:54.711Z,40.33
2017-08-10T23:45:56.147Z,38.67
2017-08-10T23:48:57.526Z,39.57
2017-08-10T23:51:58.950Z,37.00
2017-08-10T23:55:00.335Z,41.17
2017-08-10T23:58:02.501Z,39.77
